Main page
METAR-TAF:

METAR-TAF

Airports :

Cambridge Airport

Cambridge, England

latitude: 52-12N, longitude: 000-11E, elevation: 15 m

Current weather observation

The report was made 9 hours and 13 minutes ago, at 16:50 UTC
Wind 9 kt from the North
Temperature 17°C
Humidity 100%
Pressure 1014 hPa
Visibility: 5000 m
Overcast at a height of 400 ft

METAR: EGSC 141650Z 01009KT 5000 OVC004 17/17 Q1014

Time: 03:03 (02:03 UTC)

Forecast

The report was made 12 hours and 3 minutes ago, at 14:00 UTC
Forecast valid from 14 at 15 UTC to 14 at 17 UTC
Wind 8 kt from the North
Visibility: 7000 m
Broken clouds at a height of 1000 ft
Probability 40% :
Temporary
from 14 at 15 UTC to 14 at 17 UTC
Visibility: 3000 m
Broken clouds at a height of 600 ft, Cumulonimbus.
thunderstorm, heavy rain

TAF: EGSC 141400Z 1415/1417 35008KT 7000 BKN010 PROB40 TEMPO 1415/1417 3000 +TSRA BKN006CB

Weather observations and forecasts of more than 4000 airports (METAR and TAF reports).

The available stations are represented by yellow and red dots on the map.

Hover mouse over dot to see the name of the station.

Then click to see weather observations and forecasts.

To change the map : click on the green buttons with a black cross to zoom in, on the green button with a dash to zoom out, or on the green arrows for adjacent maps.


METAR-TAF: